sensor_id;sensor_type;location;lat;lon;timestamp;temperature;humidity
4578;DHT22;2301;47.354;8.528;2022-10-31T00:00:42;16.20;92.20
4578;DHT22;2301;47.354;8.528;2022-10-31T00:03:09;16.20;92.20
4578;DHT22;2301;47.354;8.528;2022-10-31T00:05:36;16.20;92.10
4578;DHT22;2301;47.354;8.528;2022-10-31T00:08:04;16.20;92.10
4578;DHT22;2301;47.354;8.528;2022-10-31T00:10:31;16.20;92.00
4578;DHT22;2301;47.354;8.528;2022-10-31T00:12:58;16.20;91.90
4578;DHT22;2301;47.354;8.528;2022-10-31T00:15:24;16.20;91.80
4578;DHT22;2301;47.354;8.528;2022-10-31T00:17:51;16.20;91.80
4578;DHT22;2301;47.354;8.528;2022-10-31T00:20:18;16.10;91.40
4578;DHT22;2301;47.354;8.528;2022-10-31T00:22:45;16.10;91.70
4578;DHT22;2301;47.354;8.528;2022-10-31T00:25:14;16.10;91.80
4578;DHT22;2301;47.354;8.528;2022-10-31T00:27:41;16.10;91.90
4578;DHT22;2301;47.354;8.528;2022-10-31T00:30:08;16.10;91.90
4578;DHT22;2301;47.354;8.528;2022-10-31T00:32:35;16.10;91.70
4578;DHT22;2301;47.354;8.528;2022-10-31T00:35:03;16.10;91.90
4578;DHT22;2301;47.354;8.528;2022-10-31T00:37:29;16.10;91.70
4578;DHT22;2301;47.354;8.528;2022-10-31T00:39:56;16.10;91.70
4578;DHT22;2301;47.354;8.528;2022-10-31T00:42:25;16.10;91.60
4578;DHT22;2301;47.354;8.528;2022-10-31T00:44:51;16.00;91.30
4578;DHT22;2301;47.354;8.528;2022-10-31T00:47:18;16.00;91.40
4578;DHT22;2301;47.354;8.528;2022-10-31T00:49:45;16.00;91.40
4578;DHT22;2301;47.354;8.528;2022-10-31T00:52:12;16.00;91.60
4578;DHT22;2301;47.354;8.528;2022-10-31T00:54:39;16.00;91.70
4578;DHT22;2301;47.354;8.528;2022-10-31T00:57:06;16.10;92.10
4578;DHT22;2301;47.354;8.528;2022-10-31T00:59:34;16.10;91.60
4578;DHT22;2301;47.354;8.528;2022-10-31T01:02:01;16.10;91.40
4578;DHT22;2301;47.354;8.528;2022-10-31T01:04:28;16.10;90.90
4578;DHT22;2301;47.354;8.528;2022-10-31T01:06:55;16.00;90.90
4578;DHT22;2301;47.354;8.528;2022-10-31T01:09:21;16.00;91.20
4578;DHT22;2301;47.354;8.528;2022-10-31T01:11:48;16.00;91.20
4578;DHT22;2301;47.354;8.528;2022-10-31T01:14:15;16.00;91.20
4578;DHT22;2301;47.354;8.528;2022-10-31T01:16:43;15.90;91.00
4578;DHT22;2301;47.354;8.528;2022-10-31T01:19:10;15.90;91.00
4578;DHT22;2301;47.354;8.528;2022-10-31T01:21:37;15.90;91.00
4578;DHT22;2301;47.354;8.528;2022-10-31T01:24:05;15.80;90.90
4578;DHT22;2301;47.354;8.528;2022-10-31T01:26:32;15.80;90.80
4578;DHT22;2301;47.354;8.528;2022-10-31T01:29:01;15.80;91.00
4578;DHT22;2301;47.354;8.528;2022-10-31T01:31:30;15.70;90.80
4578;DHT22;2301;47.354;8.528;2022-10-31T01:33:58;15.80;91.20
4578;DHT22;2301;47.354;8.528;2022-10-31T01:36:27;15.90;91.20
4578;DHT22;2301;47.354;8.528;2022-10-31T01:38:57;15.90;91.00
4578;DHT22;2301;47.354;8.528;2022-10-31T01:41:26;15.90;90.90
4578;DHT22;2301;47.354;8.528;2022-10-31T01:43:54;15.90;90.70
4578;DHT22;2301;47.354;8.528;2022-10-31T01:46:24;15.80;90.60
4578;DHT22;2301;47.354;8.528;2022-10-31T01:48:53;15.80;90.60
4578;DHT22;2301;47.354;8.528;2022-10-31T01:51:25;15.70;90.50
4578;DHT22;2301;47.354;8.528;2022-10-31T01:53:56;15.70;90.70
4578;DHT22;2301;47.354;8.528;2022-10-31T01:56:24;15.70;90.50
4578;DHT22;2301;47.354;8.528;2022-10-31T01:58:53;15.70;90.70
4578;DHT22;2301;47.354;8.528;2022-10-31T02:01:20;15.70;90.90
4578;DHT22;2301;47.354;8.528;2022-10-31T02:03:48;15.70;90.80
4578;DHT22;2301;47.354;8.528;2022-10-31T02:06:31;15.80;90.70
4578;DHT22;2301;47.354;8.528;2022-10-31T02:09:00;15.80;90.40
4578;DHT22;2301;47.354;8.528;2022-10-31T02:11:28;15.70;90.40
4578;DHT22;2301;47.354;8.528;2022-10-31T02:13:56;15.70;90.40
4578;DHT22;2301;47.354;8.528;2022-10-31T02:16:24;15.60;90.50
4578;DHT22;2301;47.354;8.528;2022-10-31T02:18:51;15.60;90.70
4578;DHT22;2301;47.354;8.528;2022-10-31T02:21:25;15.70;90.80
4578;DHT22;2301;47.354;8.528;2022-10-31T02:27:11;15.80;90.70
4578;DHT22;2301;47.354;8.528;2022-10-31T02:30:09;15.80;90.60
4578;DHT22;2301;47.354;8.528;2022-10-31T02:32:54;15.70;90.00
4578;DHT22;2301;47.354;8.528;2022-10-31T02:35:31;15.70;90.20
4578;DHT22;2301;47.354;8.528;2022-10-31T02:38:12;15.60;90.10
4578;DHT22;2301;47.354;8.528;2022-10-31T02:40:47;15.60;90.30
4578;DHT22;2301;47.354;8.528;2022-10-31T02:43:19;15.60;90.40
4578;DHT22;2301;47.354;8.528;2022-10-31T02:45:50;15.60;90.10
4578;DHT22;2301;47.354;8.528;2022-10-31T02:48:25;15.60;90.30
4578;DHT22;2301;47.354;8.528;2022-10-31T02:50:55;15.50;90.00
4578;DHT22;2301;47.354;8.528;2022-10-31T02:53:23;15.50;90.10
4578;DHT22;2301;47.354;8.528;2022-10-31T02:55:59;15.50;90.20
4578;DHT22;2301;47.354;8.528;2022-10-31T02:58:29;15.50;90.20
4578;DHT22;2301;47.354;8.528;2022-10-31T03:01:14;15.50;90.40
4578;DHT22;2301;47.354;8.528;2022-10-31T03:06:37;15.50;90.20
4578;DHT22;2301;47.354;8.528;2022-10-31T03:09:12;15.50;90.40
4578;DHT22;2301;47.354;8.528;2022-10-31T03:11:48;15.50;90.10
4578;DHT22;2301;47.354;8.528;2022-10-31T03:14:22;15.50;90.20
4578;DHT22;2301;47.354;8.528;2022-10-31T03:16:52;15.50;90.40
4578;DHT22;2301;47.354;8.528;2022-10-31T03:19:25;15.50;90.20
4578;DHT22;2301;47.354;8.528;2022-10-31T03:21:55;15.50;90.30
4578;DHT22;2301;47.354;8.528;2022-10-31T03:24:27;15.50;90.20
4578;DHT22;2301;47.354;8.528;2022-10-31T03:26:58;15.40;90.10
4578;DHT22;2301;47.354;8.528;2022-10-31T03:29:28;15.50;90.30
4578;DHT22;2301;47.354;8.528;2022-10-31T03:32:00;15.50;90.20
4578;DHT22;2301;47.354;8.528;2022-10-31T03:34:30;15.50;90.00
4578;DHT22;2301;47.354;8.528;2022-10-31T03:36:59;15.50;90.00
4578;DHT22;2301;47.354;8.528;2022-10-31T03:39:28;15.50;90.10
4578;DHT22;2301;47.354;8.528;2022-10-31T03:41:59;15.50;89.40
4578;DHT22;2301;47.354;8.528;2022-10-31T03:44:29;15.50;89.60
4578;DHT22;2301;47.354;8.528;2022-10-31T03:46:57;15.40;89.40
4578;DHT22;2301;47.354;8.528;2022-10-31T03:49:24;15.40;89.60
4578;DHT22;2301;47.354;8.528;2022-10-31T03:51:57;15.40;89.80
4578;DHT22;2301;47.354;8.528;2022-10-31T03:54:30;15.40;90.00
4578;DHT22;2301;47.354;8.528;2022-10-31T03:57:05;15.40;89.60
4578;DHT22;2301;47.354;8.528;2022-10-31T03:59:36;15.40;89.90
4578;DHT22;2301;47.354;8.528;2022-10-31T04:02:07;15.40;89.80
4578;DHT22;2301;47.354;8.528;2022-10-31T04:04:36;15.40;89.80
4578;DHT22;2301;47.354;8.528;2022-10-31T04:07:06;15.40;89.90
4578;DHT22;2301;47.354;8.528;2022-10-31T04:09:36;15.40;89.50
4578;DHT22;2301;47.354;8.528;2022-10-31T04:12:05;15.30;89.50
4578;DHT22;2301;47.354;8.528;2022-10-31T04:14:35;15.30;89.50
4578;DHT22;2301;47.354;8.528;2022-10-31T04:17:03;15.40;90.00
4578;DHT22;2301;47.354;8.528;2022-10-31T04:19:32;15.40;90.00
4578;DHT22;2301;47.354;8.528;2022-10-31T04:21:59;15.40;89.60
4578;DHT22;2301;47.354;8.528;2022-10-31T04:24:28;15.40;89.30
4578;DHT22;2301;47.354;8.528;2022-10-31T04:26:55;15.40;89.80
4578;DHT22;2301;47.354;8.528;2022-10-31T04:29:21;15.40;89.70
4578;DHT22;2301;47.354;8.528;2022-10-31T04:31:48;15.40;90.00
4578;DHT22;2301;47.354;8.528;2022-10-31T04:34:15;15.40;90.10
4578;DHT22;2301;47.354;8.528;2022-10-31T04:36:42;15.50;90.10
4578;DHT22;2301;47.354;8.528;2022-10-31T04:39:09;15.50;90.00
4578;DHT22;2301;47.354;8.528;2022-10-31T04:41:37;15.50;90.00
4578;DHT22;2301;47.354;8.528;2022-10-31T04:44:04;15.60;90.20
4578;DHT22;2301;47.354;8.528;2022-10-31T04:46:31;15.60;90.00
4578;DHT22;2301;47.354;8.528;2022-10-31T04:48:58;15.70;90.10
4578;DHT22;2301;47.354;8.528;2022-10-31T04:51:25;15.70;90.00
4578;DHT22;2301;47.354;8.528;2022-10-31T04:53:52;15.70;89.50
4578;DHT22;2301;47.354;8.528;2022-10-31T04:56:18;15.70;89.80
4578;DHT22;2301;47.354;8.528;2022-10-31T04:58:47;15.80;90.00
4578;DHT22;2301;47.354;8.528;2022-10-31T05:01:14;15.80;89.80
4578;DHT22;2301;47.354;8.528;2022-10-31T05:03:40;15.90;90.10
4578;DHT22;2301;47.354;8.528;2022-10-31T05:06:07;15.90;90.00
4578;DHT22;2301;47.354;8.528;2022-10-31T05:08:34;15.90;90.00
4578;DHT22;2301;47.354;8.528;2022-10-31T05:11:02;15.90;90.00
4578;DHT22;2301;47.354;8.528;2022-10-31T05:13:29;16.00;90.00
4578;DHT22;2301;47.354;8.528;2022-10-31T05:15:57;16.00;89.80
4578;DHT22;2301;47.354;8.528;2022-10-31T05:18:24;16.00;89.70
4578;DHT22;2301;47.354;8.528;2022-10-31T05:20:51;16.10;89.60
4578;DHT22;2301;47.354;8.528;2022-10-31T05:23:18;16.00;89.40
4578;DHT22;2301;47.354;8.528;2022-10-31T05:25:45;16.00;89.80
4578;DHT22;2301;47.354;8.528;2022-10-31T05:28:11;16.00;89.50
4578;DHT22;2301;47.354;8.528;2022-10-31T05:30:38;15.90;89.50
4578;DHT22;2301;47.354;8.528;2022-10-31T05:33:07;16.00;89.80
4578;DHT22;2301;47.354;8.528;2022-10-31T05:35:33;16.00;89.80
4578;DHT22;2301;47.354;8.528;2022-10-31T05:38:00;16.00;89.60
4578;DHT22;2301;47.354;8.528;2022-10-31T05:40:28;15.90;89.50
4578;DHT22;2301;47.354;8.528;2022-10-31T05:42:56;15.90;89.60
4578;DHT22;2301;47.354;8.528;2022-10-31T05:45:24;15.90;89.90
4578;DHT22;2301;47.354;8.528;2022-10-31T05:47:53;16.00;90.00
4578;DHT22;2301;47.354;8.528;2022-10-31T05:50:22;16.00;90.00
4578;DHT22;2301;47.354;8.528;2022-10-31T05:52:55;16.10;90.00
4578;DHT22;2301;47.354;8.528;2022-10-31T05:55:22;16.20;90.10
4578;DHT22;2301;47.354;8.528;2022-10-31T05:57:49;16.20;89.60
4578;DHT22;2301;47.354;8.528;2022-10-31T06:00:17;16.20;89.20
4578;DHT22;2301;47.354;8.528;2022-10-31T06:02:44;16.10;89.30
4578;DHT22;2301;47.354;8.528;2022-10-31T06:05:11;16.10;89.50
4578;DHT22;2301;47.354;8.528;2022-10-31T06:07:40;16.20;90.00
4578;DHT22;2301;47.354;8.528;2022-10-31T06:10:07;16.10;89.60
4578;DHT22;2301;47.354;8.528;2022-10-31T06:12:36;16.10;89.80
4578;DHT22;2301;47.354;8.528;2022-10-31T06:15:04;16.20;89.70
4578;DHT22;2301;47.354;8.528;2022-10-31T06:17:31;16.10;89.50
4578;DHT22;2301;47.354;8.528;2022-10-31T06:19:58;16.20;89.90
4578;DHT22;2301;47.354;8.528;2022-10-31T06:22:25;16.10;89.80
4578;DHT22;2301;47.354;8.528;2022-10-31T06:24:53;16.20;89.80
4578;DHT22;2301;47.354;8.528;2022-10-31T06:27:20;16.10;89.70
4578;DHT22;2301;47.354;8.528;2022-10-31T06:29:47;16.10;89.80
4578;DHT22;2301;47.354;8.528;2022-10-31T06:32:15;16.20;89.90
4578;DHT22;2301;47.354;8.528;2022-10-31T06:34:42;16.20;89.50
4578;DHT22;2301;47.354;8.528;2022-10-31T06:37:09;16.20;89.70
4578;DHT22;2301;47.354;8.528;2022-10-31T06:39:36;16.20;89.80
4578;DHT22;2301;47.354;8.528;2022-10-31T06:42:05;16.20;89.80
4578;DHT22;2301;47.354;8.528;2022-10-31T06:44:32;16.30;89.80
4578;DHT22;2301;47.354;8.528;2022-10-31T06:46:59;16.20;89.30
4578;DHT22;2301;47.354;8.528;2022-10-31T06:49:26;16.20;89.70
4578;DHT22;2301;47.354;8.528;2022-10-31T06:51:53;16.20;89.60
4578;DHT22;2301;47.354;8.528;2022-10-31T06:54:20;16.30;89.70
4578;DHT22;2301;47.354;8.528;2022-10-31T06:56:47;16.30;89.70
4578;DHT22;2301;47.354;8.528;2022-10-31T06:59:16;16.30;89.60
4578;DHT22;2301;47.354;8.528;2022-10-31T07:01:43;16.30;89.60
4578;DHT22;2301;47.354;8.528;2022-10-31T07:04:10;16.40;89.80
4578;DHT22;2301;47.354;8.528;2022-10-31T07:06:37;16.40;89.80
4578;DHT22;2301;47.354;8.528;2022-10-31T07:09:05;16.40;89.50
4578;DHT22;2301;47.354;8.528;2022-10-31T07:11:32;16.40;89.40
4578;DHT22;2301;47.354;8.528;2022-10-31T07:13:59;16.40;89.40
4578;DHT22;2301;47.354;8.528;2022-10-31T07:16:27;16.40;89.40
4578;DHT22;2301;47.354;8.528;2022-10-31T07:18:54;16.50;89.40
4578;DHT22;2301;47.354;8.528;2022-10-31T07:21:21;16.50;89.30
4578;DHT22;2301;47.354;8.528;2022-10-31T07:23:48;16.50;89.20
4578;DHT22;2301;47.354;8.528;2022-10-31T07:26:15;16.50;89.40
4578;DHT22;2301;47.354;8.528;2022-10-31T07:28:42;16.50;89.30
4578;DHT22;2301;47.354;8.528;2022-10-31T07:31:09;16.60;89.30
4578;DHT22;2301;47.354;8.528;2022-10-31T07:33:37;16.60;89.20
4578;DHT22;2301;47.354;8.528;2022-10-31T07:36:04;16.60;89.30
4578;DHT22;2301;47.354;8.528;2022-10-31T07:38:31;16.50;88.20
4578;DHT22;2301;47.354;8.528;2022-10-31T07:40:58;16.40;86.90
4578;DHT22;2301;47.354;8.528;2022-10-31T07:43:25;16.40;87.80
4578;DHT22;2301;47.354;8.528;2022-10-31T07:45:52;16.30;86.80
4578;DHT22;2301;47.354;8.528;2022-10-31T07:48:20;16.10;86.60
4578;DHT22;2301;47.354;8.528;2022-10-31T07:50:48;15.90;86.50
4578;DHT22;2301;47.354;8.528;2022-10-31T07:53:15;15.70;86.80
4578;DHT22;2301;47.354;8.528;2022-10-31T07:55:43;15.50;87.10
4578;DHT22;2301;47.354;8.528;2022-10-31T07:58:11;15.40;87.60
4578;DHT22;2301;47.354;8.528;2022-10-31T08:00:40;15.20;88.10
4578;DHT22;2301;47.354;8.528;2022-10-31T08:03:08;15.10;88.50
4578;DHT22;2301;47.354;8.528;2022-10-31T08:05:36;15.00;88.80
4578;DHT22;2301;47.354;8.528;2022-10-31T08:08:05;14.90;89.10
4578;DHT22;2301;47.354;8.528;2022-10-31T08:10:33;14.80;89.40
4578;DHT22;2301;47.354;8.528;2022-10-31T08:13:02;14.80;90.00
4578;DHT22;2301;47.354;8.528;2022-10-31T08:15:29;14.70;90.20
4578;DHT22;2301;47.354;8.528;2022-10-31T08:17:56;14.70;90.40
4578;DHT22;2301;47.354;8.528;2022-10-31T08:20:24;14.70;90.50
4578;DHT22;2301;47.354;8.528;2022-10-31T08:22:55;14.70;90.60
4578;DHT22;2301;47.354;8.528;2022-10-31T08:25:25;14.70;90.80
4578;DHT22;2301;47.354;8.528;2022-10-31T08:27:53;14.60;90.80
4578;DHT22;2301;47.354;8.528;2022-10-31T08:30:20;14.60;90.90
4578;DHT22;2301;47.354;8.528;2022-10-31T08:32:56;14.60;91.10
4578;DHT22;2301;47.354;8.528;2022-10-31T08:35:23;14.50;91.30
4578;DHT22;2301;47.354;8.528;2022-10-31T08:37:52;14.60;91.40
4578;DHT22;2301;47.354;8.528;2022-10-31T08:40:19;14.60;91.50
4578;DHT22;2301;47.354;8.528;2022-10-31T08:42:54;14.50;91.50
4578;DHT22;2301;47.354;8.528;2022-10-31T08:45:22;14.50;91.60
4578;DHT22;2301;47.354;8.528;2022-10-31T08:47:49;14.50;91.70
4578;DHT22;2301;47.354;8.528;2022-10-31T08:50:16;14.50;91.90
4578;DHT22;2301;47.354;8.528;2022-10-31T08:52:43;14.50;92.00
4578;DHT22;2301;47.354;8.528;2022-10-31T08:55:10;14.50;92.00
4578;DHT22;2301;47.354;8.528;2022-10-31T08:57:37;14.60;92.00
4578;DHT22;2301;47.354;8.528;2022-10-31T09:00:06;14.60;92.10
4578;DHT22;2301;47.354;8.528;2022-10-31T09:02:33;14.60;92.20
4578;DHT22;2301;47.354;8.528;2022-10-31T09:05:00;14.60;92.30
4578;DHT22;2301;47.354;8.528;2022-10-31T09:07:27;14.60;92.30
4578;DHT22;2301;47.354;8.528;2022-10-31T09:09:54;14.70;92.40
4578;DHT22;2301;47.354;8.528;2022-10-31T09:12:22;14.70;92.30
4578;DHT22;2301;47.354;8.528;2022-10-31T09:14:50;14.70;92.40
4578;DHT22;2301;47.354;8.528;2022-10-31T09:17:18;14.70;92.50
4578;DHT22;2301;47.354;8.528;2022-10-31T09:19:45;14.80;92.50
4578;DHT22;2301;47.354;8.528;2022-10-31T09:22:12;14.80;92.50
4578;DHT22;2301;47.354;8.528;2022-10-31T09:24:39;14.80;92.60
4578;DHT22;2301;47.354;8.528;2022-10-31T09:27:06;14.80;92.60
4578;DHT22;2301;47.354;8.528;2022-10-31T09:29:34;14.80;92.70
4578;DHT22;2301;47.354;8.528;2022-10-31T09:32:01;14.90;92.70
4578;DHT22;2301;47.354;8.528;2022-10-31T09:34:30;14.90;92.60
4578;DHT22;2301;47.354;8.528;2022-10-31T09:36:57;14.90;92.60
4578;DHT22;2301;47.354;8.528;2022-10-31T09:39:24;14.90;92.60
4578;DHT22;2301;47.354;8.528;2022-10-31T09:42:12;14.90;92.70
4578;DHT22;2301;47.354;8.528;2022-10-31T09:44:49;15.00;92.80
4578;DHT22;2301;47.354;8.528;2022-10-31T09:47:23;15.00;92.70
4578;DHT22;2301;47.354;8.528;2022-10-31T09:50:02;15.10;92.80
4578;DHT22;2301;47.354;8.528;2022-10-31T09:52:35;15.10;92.70
4578;DHT22;2301;47.354;8.528;2022-10-31T09:55:08;15.10;92.60
4578;DHT22;2301;47.354;8.528;2022-10-31T09:57:40;15.20;92.60
4578;DHT22;2301;47.354;8.528;2022-10-31T10:00:15;15.20;92.70
4578;DHT22;2301;47.354;8.528;2022-10-31T10:02:46;15.20;92.70
4578;DHT22;2301;47.354;8.528;2022-10-31T10:05:19;15.30;92.70
4578;DHT22;2301;47.354;8.528;2022-10-31T10:07:54;15.30;92.60
4578;DHT22;2301;47.354;8.528;2022-10-31T10:10:34;15.30;92.50
4578;DHT22;2301;47.354;8.528;2022-10-31T10:13:25;15.20;92.50
4578;DHT22;2301;47.354;8.528;2022-10-31T10:16:07;15.20;92.50
4578;DHT22;2301;47.354;8.528;2022-10-31T10:18:48;15.30;92.60
4578;DHT22;2301;47.354;8.528;2022-10-31T10:21:28;15.30;92.60
4578;DHT22;2301;47.354;8.528;2022-10-31T10:24:09;15.30;92.60
4578;DHT22;2301;47.354;8.528;2022-10-31T10:26:43;15.30;92.70
4578;DHT22;2301;47.354;8.528;2022-10-31T10:29:21;15.30;92.70
4578;DHT22;2301;47.354;8.528;2022-10-31T10:31:52;15.30;92.70
4578;DHT22;2301;47.354;8.528;2022-10-31T10:34:22;15.30;92.70
4578;DHT22;2301;47.354;8.528;2022-10-31T10:36:56;15.30;92.80
4578;DHT22;2301;47.354;8.528;2022-10-31T10:39:29;15.40;92.90
4578;DHT22;2301;47.354;8.528;2022-10-31T10:41:59;15.40;92.90
4578;DHT22;2301;47.354;8.528;2022-10-31T10:44:47;15.40;92.80
4578;DHT22;2301;47.354;8.528;2022-10-31T10:47:36;15.40;92.70
4578;DHT22;2301;47.354;8.528;2022-10-31T10:50:10;15.40;92.70
4578;DHT22;2301;47.354;8.528;2022-10-31T10:52:47;15.50;92.70
4578;DHT22;2301;47.354;8.528;2022-10-31T10:55:21;15.50;92.80
4578;DHT22;2301;47.354;8.528;2022-10-31T10:57:56;15.60;92.80
4578;DHT22;2301;47.354;8.528;2022-10-31T11:00:24;15.60;92.70
4578;DHT22;2301;47.354;8.528;2022-10-31T11:02:52;15.60;92.70
4578;DHT22;2301;47.354;8.528;2022-10-31T11:05:24;15.60;92.70
4578;DHT22;2301;47.354;8.528;2022-10-31T11:07:53;15.70;92.70
4578;DHT22;2301;47.354;8.528;2022-10-31T11:10:20;15.60;92.80
4578;DHT22;2301;47.354;8.528;2022-10-31T11:13:00;15.70;92.90
4578;DHT22;2301;47.354;8.528;2022-10-31T11:15:28;15.70;93.00
4578;DHT22;2301;47.354;8.528;2022-10-31T11:17:57;15.70;93.00
4578;DHT22;2301;47.354;8.528;2022-10-31T11:20:31;15.80;92.90
4578;DHT22;2301;47.354;8.528;2022-10-31T11:23:16;15.80;92.90
4578;DHT22;2301;47.354;8.528;2022-10-31T11:25:52;15.90;92.80
4578;DHT22;2301;47.354;8.528;2022-10-31T11:28:20;15.90;92.70
4578;DHT22;2301;47.354;8.528;2022-10-31T11:30:48;15.90;92.70
4578;DHT22;2301;47.354;8.528;2022-10-31T11:33:22;15.90;92.70
4578;DHT22;2301;47.354;8.528;2022-10-31T11:35:53;16.00;92.80
4578;DHT22;2301;47.354;8.528;2022-10-31T11:38:24;16.10;93.00
4578;DHT22;2301;47.354;8.528;2022-10-31T11:40:54;16.30;93.10
4578;DHT22;2301;47.354;8.528;2022-10-31T11:43:22;16.50;93.20
4578;DHT22;2301;47.354;8.528;2022-10-31T11:45:49;16.70;93.10
4578;DHT22;2301;47.354;8.528;2022-10-31T11:48:19;16.80;92.60
4578;DHT22;2301;47.354;8.528;2022-10-31T11:50:52;16.90;92.50
4578;DHT22;2301;47.354;8.528;2022-10-31T11:53:25;17.10;92.40
4578;DHT22;2301;47.354;8.528;2022-10-31T11:56:02;17.20;92.40
4578;DHT22;2301;47.354;8.528;2022-10-31T11:58:30;17.40;92.20
4578;DHT22;2301;47.354;8.528;2022-10-31T12:00:57;17.40;91.90
4578;DHT22;2301;47.354;8.528;2022-10-31T12:03:38;17.60;91.80
4578;DHT22;2301;47.354;8.528;2022-10-31T12:06:15;17.70;91.40
4578;DHT22;2301;47.354;8.528;2022-10-31T12:08:45;17.70;91.10
4578;DHT22;2301;47.354;8.528;2022-10-31T12:11:32;17.80;90.90
4578;DHT22;2301;47.354;8.528;2022-10-31T12:14:12;18.00;91.10
4578;DHT22;2301;47.354;8.528;2022-10-31T12:16:48;18.20;91.00
4578;DHT22;2301;47.354;8.528;2022-10-31T12:19:24;18.40;90.80
4578;DHT22;2301;47.354;8.528;2022-10-31T12:22:06;18.50;89.80
4578;DHT22;2301;47.354;8.528;2022-10-31T12:25:02;18.60;88.40
4578;DHT22;2301;47.354;8.528;2022-10-31T12:27:47;18.60;87.60
4578;DHT22;2301;47.354;8.528;2022-10-31T12:30:20;18.70;87.80
4578;DHT22;2301;47.354;8.528;2022-10-31T12:33:00;18.80;88.40
4578;DHT22;2301;47.354;8.528;2022-10-31T12:35:40;19.00;87.60
4578;DHT22;2301;47.354;8.528;2022-10-31T12:38:35;19.10;87.40
4578;DHT22;2301;47.354;8.528;2022-10-31T12:41:22;19.30;86.80
4578;DHT22;2301;47.354;8.528;2022-10-31T12:43:56;19.40;86.80
4578;DHT22;2301;47.354;8.528;2022-10-31T12:46:32;19.50;86.10
4578;DHT22;2301;47.354;8.528;2022-10-31T12:49:30;19.60;85.30
4578;DHT22;2301;47.354;8.528;2022-10-31T12:52:09;19.60;84.30
4578;DHT22;2301;47.354;8.528;2022-10-31T12:54:54;19.70;84.00
4578;DHT22;2301;47.354;8.528;2022-10-31T12:57:29;19.70;83.30
4578;DHT22;2301;47.354;8.528;2022-10-31T13:00:02;19.80;82.80
4578;DHT22;2301;47.354;8.528;2022-10-31T13:02:35;19.80;81.80
4578;DHT22;2301;47.354;8.528;2022-10-31T13:05:10;19.70;81.50
4578;DHT22;2301;47.354;8.528;2022-10-31T13:07:43;19.80;81.90
4578;DHT22;2301;47.354;8.528;2022-10-31T13:10:17;19.80;81.70
4578;DHT22;2301;47.354;8.528;2022-10-31T13:12:48;19.80;81.70
4578;DHT22;2301;47.354;8.528;2022-10-31T13:15:19;19.90;81.80
4578;DHT22;2301;47.354;8.528;2022-10-31T13:17:49;19.90;81.80
4578;DHT22;2301;47.354;8.528;2022-10-31T13:20:22;19.80;81.00
4578;DHT22;2301;47.354;8.528;2022-10-31T13:22:53;19.80;80.70
4578;DHT22;2301;47.354;8.528;2022-10-31T13:25:24;19.80;81.30
4578;DHT22;2301;47.354;8.528;2022-10-31T13:27:55;19.80;81.60
4578;DHT22;2301;47.354;8.528;2022-10-31T13:30:24;19.70;81.30
4578;DHT22;2301;47.354;8.528;2022-10-31T13:32:55;19.70;81.30
4578;DHT22;2301;47.354;8.528;2022-10-31T13:35:30;19.60;81.40
4578;DHT22;2301;47.354;8.528;2022-10-31T13:38:16;19.40;81.60
4578;DHT22;2301;47.354;8.528;2022-10-31T13:40:50;19.30;81.70
4578;DHT22;2301;47.354;8.528;2022-10-31T13:43:28;19.10;82.30
4578;DHT22;2301;47.354;8.528;2022-10-31T13:45:58;19.10;82.90
4578;DHT22;2301;47.354;8.528;2022-10-31T13:48:46;19.00;82.30
4578;DHT22;2301;47.354;8.528;2022-10-31T13:51:24;19.00;80.90
4578;DHT22;2301;47.354;8.528;2022-10-31T13:53:59;19.00;80.30
4578;DHT22;2301;47.354;8.528;2022-10-31T13:56:28;19.00;80.20
4578;DHT22;2301;47.354;8.528;2022-10-31T13:59:18;18.90;79.70
4578;DHT22;2301;47.354;8.528;2022-10-31T14:01:47;19.00;79.70
4578;DHT22;2301;47.354;8.528;2022-10-31T14:04:17;18.90;79.70
4578;DHT22;2301;47.354;8.528;2022-10-31T14:06:54;18.90;79.80
4578;DHT22;2301;47.354;8.528;2022-10-31T14:09:29;18.90;79.80
4578;DHT22;2301;47.354;8.528;2022-10-31T14:12:00;18.90;79.10
4578;DHT22;2301;47.354;8.528;2022-10-31T14:14:40;18.80;79.30
4578;DHT22;2301;47.354;8.528;2022-10-31T14:17:17;18.80;79.90
4578;DHT22;2301;47.354;8.528;2022-10-31T14:19:56;18.70;79.40
4578;DHT22;2301;47.354;8.528;2022-10-31T14:22:30;18.70;79.70
4578;DHT22;2301;47.354;8.528;2022-10-31T14:24:57;18.60;80.40
4578;DHT22;2301;47.354;8.528;2022-10-31T14:27:44;18.60;81.30
4578;DHT22;2301;47.354;8.528;2022-10-31T14:30:19;18.60;82.20
4578;DHT22;2301;47.354;8.528;2022-10-31T14:32:51;18.60;82.60
4578;DHT22;2301;47.354;8.528;2022-10-31T14:35:20;18.60;82.60
4578;DHT22;2301;47.354;8.528;2022-10-31T14:38:18;18.60;82.60
4578;DHT22;2301;47.354;8.528;2022-10-31T14:40:58;18.60;82.90
4578;DHT22;2301;47.354;8.528;2022-10-31T14:43:44;18.60;83.10
4578;DHT22;2301;47.354;8.528;2022-10-31T14:46:22;18.70;83.10
4578;DHT22;2301;47.354;8.528;2022-10-31T14:49:05;18.70;82.60
4578;DHT22;2301;47.354;8.528;2022-10-31T14:51:39;18.70;82.50
4578;DHT22;2301;47.354;8.528;2022-10-31T14:54:12;18.70;82.10
4578;DHT22;2301;47.354;8.528;2022-10-31T14:56:46;18.70;81.80
4578;DHT22;2301;47.354;8.528;2022-10-31T14:59:17;18.70;82.40
4578;DHT22;2301;47.354;8.528;2022-10-31T15:01:56;18.70;82.20
4578;DHT22;2301;47.354;8.528;2022-10-31T15:04:25;18.80;83.00
4578;DHT22;2301;47.354;8.528;2022-10-31T15:06:57;18.80;83.30
4578;DHT22;2301;47.354;8.528;2022-10-31T15:09:25;18.80;83.50
4578;DHT22;2301;47.354;8.528;2022-10-31T15:11:52;18.70;83.60
4578;DHT22;2301;47.354;8.528;2022-10-31T15:14:24;18.70;83.80
4578;DHT22;2301;47.354;8.528;2022-10-31T15:16:54;18.70;84.10
4578;DHT22;2301;47.354;8.528;2022-10-31T15:19:25;18.70;84.40
4578;DHT22;2301;47.354;8.528;2022-10-31T15:21:54;18.60;84.70
4578;DHT22;2301;47.354;8.528;2022-10-31T15:24:24;18.60;85.10
4578;DHT22;2301;47.354;8.528;2022-10-31T15:26:52;18.50;85.40
4578;DHT22;2301;47.354;8.528;2022-10-31T15:29:21;18.50;85.80
4578;DHT22;2301;47.354;8.528;2022-10-31T15:31:50;18.40;86.20
4578;DHT22;2301;47.354;8.528;2022-10-31T15:34:22;18.40;86.50
4578;DHT22;2301;47.354;8.528;2022-10-31T15:36:49;18.30;86.80
4578;DHT22;2301;47.354;8.528;2022-10-31T15:39:16;18.20;87.00
4578;DHT22;2301;47.354;8.528;2022-10-31T15:41:49;18.20;87.40
4578;DHT22;2301;47.354;8.528;2022-10-31T15:44:20;18.10;87.50
4578;DHT22;2301;47.354;8.528;2022-10-31T15:46:55;18.00;87.60
4578;DHT22;2301;47.354;8.528;2022-10-31T15:49:34;18.00;87.70
4578;DHT22;2301;47.354;8.528;2022-10-31T15:52:09;17.90;87.90
4578;DHT22;2301;47.354;8.528;2022-10-31T15:54:44;17.90;87.80
4578;DHT22;2301;47.354;8.528;2022-10-31T15:57:12;17.80;87.80
4578;DHT22;2301;47.354;8.528;2022-10-31T15:59:40;17.70;87.80
4578;DHT22;2301;47.354;8.528;2022-10-31T16:02:11;17.70;87.90
4578;DHT22;2301;47.354;8.528;2022-10-31T16:04:48;17.60;88.00
4578;DHT22;2301;47.354;8.528;2022-10-31T16:07:17;17.60;88.10
4578;DHT22;2301;47.354;8.528;2022-10-31T16:09:55;17.50;88.10
4578;DHT22;2301;47.354;8.528;2022-10-31T16:12:30;17.40;88.10
4578;DHT22;2301;47.354;8.528;2022-10-31T16:14:58;17.40;88.30
4578;DHT22;2301;47.354;8.528;2022-10-31T16:17:26;17.30;88.40
4578;DHT22;2301;47.354;8.528;2022-10-31T16:19:57;17.20;88.40
4578;DHT22;2301;47.354;8.528;2022-10-31T16:22:27;17.20;88.60
4578;DHT22;2301;47.354;8.528;2022-10-31T16:24:59;17.10;88.80
4578;DHT22;2301;47.354;8.528;2022-10-31T16:27:29;17.10;88.90
4578;DHT22;2301;47.354;8.528;2022-10-31T16:29:57;17.00;89.00
4578;DHT22;2301;47.354;8.528;2022-10-31T16:32:32;16.90;89.20